sensor_id;sensor_type;location;lat;lon;timestamp;P1;durP1;ratioP1;P2;durP2;ratioP2
69081;SDS011;56184;51.986;5.760;2022-09-12T00:01:32;9.82;;;7.30;;
69081;SDS011;56184;51.986;5.760;2022-09-12T00:03:59;11.30;;;7.07;;
69081;SDS011;56184;51.986;5.760;2022-09-12T00:06:27;7.60;;;6.20;;
69081;SDS011;56184;51.986;5.760;2022-09-12T00:08:56;7.15;;;6.03;;
69081;SDS011;56184;51.986;5.760;2022-09-12T00:11:24;9.57;;;6.93;;
69081;SDS011;56184;51.986;5.760;2022-09-12T00:13:58;9.45;;;6.07;;
69081;SDS011;56184;51.986;5.760;2022-09-12T00:16:26;7.07;;;5.60;;
69081;SDS011;56184;51.986;5.760;2022-09-12T00:18:54;11.02;;;6.47;;
69081;SDS011;56184;51.986;5.760;2022-09-12T00:21:20;7.93;;;6.07;;
69081;SDS011;56184;51.986;5.760;2022-09-12T00:23:47;7.70;;;5.78;;
69081;SDS011;56184;51.986;5.760;2022-09-12T00:26:20;7.38;;;6.40;;
69081;SDS011;56184;51.986;5.760;2022-09-12T00:28:46;8.68;;;6.60;;
69081;SDS011;56184;51.986;5.760;2022-09-12T00:31:14;7.10;;;5.85;;
69081;SDS011;56184;51.986;5.760;2022-09-12T00:33:41;15.27;;;6.38;;
69081;SDS011;56184;51.986;5.760;2022-09-12T00:36:09;6.35;;;5.75;;
69081;SDS011;56184;51.986;5.760;2022-09-12T00:38:38;11.18;;;6.10;;
69081;SDS011;56184;51.986;5.760;2022-09-12T00:41:06;6.88;;;5.25;;
69081;SDS011;56184;51.986;5.760;2022-09-12T00:43:38;5.78;;;5.18;;
69081;SDS011;56184;51.986;5.760;2022-09-12T00:46:10;5.70;;;5.03;;
69081;SDS011;56184;51.986;5.760;2022-09-12T00:48:48;6.35;;;4.20;;
69081;SDS011;56184;51.986;5.760;2022-09-12T00:51:17;5.70;;;5.10;;
69081;SDS011;56184;51.986;5.760;2022-09-12T00:53:43;5.82;;;4.82;;
69081;SDS011;56184;51.986;5.760;2022-09-12T00:56:12;7.63;;;4.68;;
69081;SDS011;56184;51.986;5.760;2022-09-12T00:58:47;6.47;;;5.25;;
69081;SDS011;56184;51.986;5.760;2022-09-12T01:01:25;9.10;;;5.00;;
69081;SDS011;56184;51.986;5.760;2022-09-12T01:03:51;8.52;;;5.78;;
69081;SDS011;56184;51.986;5.760;2022-09-12T01:06:19;7.95;;;6.50;;
69081;SDS011;56184;51.986;5.760;2022-09-12T01:08:48;7.90;;;5.32;;
69081;SDS011;56184;51.986;5.760;2022-09-12T01:11:16;9.38;;;5.20;;
69081;SDS011;56184;51.986;5.760;2022-09-12T01:13:43;8.93;;;6.03;;
69081;SDS011;56184;51.986;5.760;2022-09-12T01:16:10;6.95;;;5.63;;
69081;SDS011;56184;51.986;5.760;2022-09-12T01:39:00;5.63;;;3.85;;
69081;SDS011;56184;51.986;5.760;2022-09-12T01:47:28;11.52;;;3.95;;
69081;SDS011;56184;51.986;5.760;2022-09-12T01:50:04;5.20;;;4.18;;
69081;SDS011;56184;51.986;5.760;2022-09-12T01:52:41;5.00;;;4.20;;
69081;SDS011;56184;51.986;5.760;2022-09-12T01:58:16;8.25;;;4.22;;
69081;SDS011;56184;51.986;5.760;2022-09-12T02:00:50;5.55;;;4.78;;
69081;SDS011;56184;51.986;5.760;2022-09-12T02:03:43;6.25;;;4.53;;
69081;SDS011;56184;51.986;5.760;2022-09-12T02:06:23;4.65;;;4.25;;
69081;SDS011;56184;51.986;5.760;2022-09-12T02:09:10;5.53;;;4.47;;
69081;SDS011;56184;51.986;5.760;2022-09-12T02:11:45;5.38;;;4.28;;
69081;SDS011;56184;51.986;5.760;2022-09-12T02:14:18;11.38;;;4.60;;
69081;SDS011;56184;51.986;5.760;2022-09-12T02:16:49;8.57;;;4.30;;
69081;SDS011;56184;51.986;5.760;2022-09-12T02:19:19;5.90;;;4.15;;
69081;SDS011;56184;51.986;5.760;2022-09-12T02:21:54;8.90;;;4.50;;
69081;SDS011;56184;51.986;5.760;2022-09-12T02:24:24;6.10;;;4.15;;
69081;SDS011;56184;51.986;5.760;2022-09-12T02:26:58;5.57;;;4.18;;
69081;SDS011;56184;51.986;5.760;2022-09-12T02:29:47;4.22;;;3.83;;
69081;SDS011;56184;51.986;5.760;2022-09-12T02:32:27;9.23;;;4.70;;
69081;SDS011;56184;51.986;5.760;2022-09-12T02:35:02;4.32;;;3.92;;
69081;SDS011;56184;51.986;5.760;2022-09-12T02:38:04;5.03;;;3.70;;
69081;SDS011;56184;51.986;5.760;2022-09-12T02:40:42;6.15;;;3.97;;
69081;SDS011;56184;51.986;5.760;2022-09-12T02:43:07;7.43;;;5.05;;
69081;SDS011;56184;51.986;5.760;2022-09-12T02:45:33;13.73;;;5.28;;
69081;SDS011;56184;51.986;5.760;2022-09-12T02:50:38;7.40;;;5.10;;
69081;SDS011;56184;51.986;5.760;2022-09-12T02:53:06;10.38;;;5.55;;
69081;SDS011;56184;51.986;5.760;2022-09-12T02:55:34;11.75;;;5.72;;
69081;SDS011;56184;51.986;5.760;2022-09-12T02:58:02;7.00;;;6.30;;
69081;SDS011;56184;51.986;5.760;2022-09-12T03:00:34;8.20;;;5.40;;
69081;SDS011;56184;51.986;5.760;2022-09-12T03:06:08;7.85;;;6.63;;
69081;SDS011;56184;51.986;5.760;2022-09-12T03:08:52;8.68;;;6.55;;
69081;SDS011;56184;51.986;5.760;2022-09-12T03:11:42;9.70;;;6.60;;
69081;SDS011;56184;51.986;5.760;2022-09-12T03:17:25;10.75;;;6.95;;
69081;SDS011;56184;51.986;5.760;2022-09-12T03:20:07;9.13;;;7.28;;
69081;SDS011;56184;51.986;5.760;2022-09-12T03:25:34;10.10;;;7.80;;
69081;SDS011;56184;51.986;5.760;2022-09-12T03:28:07;14.68;;;7.72;;
69081;SDS011;56184;51.986;5.760;2022-09-12T03:30:39;10.27;;;7.53;;
69081;SDS011;56184;51.986;5.760;2022-09-12T03:33:09;10.13;;;7.55;;
69081;SDS011;56184;51.986;5.760;2022-09-12T03:35:36;13.95;;;7.38;;
69081;SDS011;56184;51.986;5.760;2022-09-12T03:38:01;11.48;;;7.25;;
69081;SDS011;56184;51.986;5.760;2022-09-12T03:40:27;10.32;;;7.35;;
69081;SDS011;56184;51.986;5.760;2022-09-12T03:42:53;10.52;;;7.03;;
69081;SDS011;56184;51.986;5.760;2022-09-12T03:45:18;11.70;;;7.05;;
69081;SDS011;56184;51.986;5.760;2022-09-12T03:47:44;10.10;;;7.45;;
69081;SDS011;56184;51.986;5.760;2022-09-12T03:50:10;12.15;;;8.32;;
69081;SDS011;56184;51.986;5.760;2022-09-12T03:52:35;13.55;;;9.10;;
69081;SDS011;56184;51.986;5.760;2022-09-12T03:55:01;13.75;;;8.70;;
69081;SDS011;56184;51.986;5.760;2022-09-12T03:57:26;12.48;;;9.43;;
69081;SDS011;56184;51.986;5.760;2022-09-12T03:59:52;15.13;;;8.77;;
69081;SDS011;56184;51.986;5.760;2022-09-12T04:02:18;13.63;;;8.48;;
69081;SDS011;56184;51.986;5.760;2022-09-12T04:04:43;14.05;;;8.15;;
69081;SDS011;56184;51.986;5.760;2022-09-12T04:07:12;15.20;;;7.82;;
69081;SDS011;56184;51.986;5.760;2022-09-12T04:09:39;11.63;;;7.50;;
69081;SDS011;56184;51.986;5.760;2022-09-12T04:12:05;11.23;;;7.32;;
69081;SDS011;56184;51.986;5.760;2022-09-12T04:14:31;10.82;;;7.57;;
69081;SDS011;56184;51.986;5.760;2022-09-12T04:16:56;11.95;;;7.07;;
69081;SDS011;56184;51.986;5.760;2022-09-12T04:19:22;11.25;;;8.05;;
69081;SDS011;56184;51.986;5.760;2022-09-12T04:21:49;11.40;;;6.68;;
69081;SDS011;56184;51.986;5.760;2022-09-12T04:24:14;9.90;;;7.43;;
69081;SDS011;56184;51.986;5.760;2022-09-12T04:29:23;12.32;;;6.70;;
69081;SDS011;56184;51.986;5.760;2022-09-12T04:31:53;11.38;;;7.10;;
69081;SDS011;56184;51.986;5.760;2022-09-12T04:34:19;12.57;;;8.30;;
69081;SDS011;56184;51.986;5.760;2022-09-12T04:36:45;15.18;;;9.95;;
69081;SDS011;56184;51.986;5.760;2022-09-12T04:39:10;12.75;;;8.27;;
69081;SDS011;56184;51.986;5.760;2022-09-12T04:41:37;11.65;;;7.93;;
69081;SDS011;56184;51.986;5.760;2022-09-12T04:44:14;11.50;;;8.35;;
69081;SDS011;56184;51.986;5.760;2022-09-12T04:46:41;11.23;;;7.75;;
69081;SDS011;56184;51.986;5.760;2022-09-12T04:49:09;15.68;;;8.10;;
69081;SDS011;56184;51.986;5.760;2022-09-12T04:51:35;11.70;;;8.00;;
69081;SDS011;56184;51.986;5.760;2022-09-12T04:54:03;13.90;;;8.68;;
69081;SDS011;56184;51.986;5.760;2022-09-12T04:56:31;12.60;;;8.40;;
69081;SDS011;56184;51.986;5.760;2022-09-12T04:58:58;11.55;;;8.00;;
69081;SDS011;56184;51.986;5.760;2022-09-12T05:01:25;12.18;;;7.80;;
69081;SDS011;56184;51.986;5.760;2022-09-12T05:03:52;14.15;;;8.77;;
69081;SDS011;56184;51.986;5.760;2022-09-12T05:06:22;13.88;;;8.15;;
69081;SDS011;56184;51.986;5.760;2022-09-12T05:08:50;13.07;;;8.18;;
69081;SDS011;56184;51.986;5.760;2022-09-12T05:11:18;12.40;;;8.48;;
69081;SDS011;56184;51.986;5.760;2022-09-12T05:13:45;17.30;;;8.32;;
69081;SDS011;56184;51.986;5.760;2022-09-12T05:16:12;12.48;;;8.63;;
69081;SDS011;56184;51.986;5.760;2022-09-12T05:18:42;11.80;;;8.52;;
69081;SDS011;56184;51.986;5.760;2022-09-12T05:21:10;13.50;;;8.48;;
69081;SDS011;56184;51.986;5.760;2022-09-12T05:23:38;13.05;;;8.35;;
69081;SDS011;56184;51.986;5.760;2022-09-12T05:26:04;13.40;;;8.63;;
69081;SDS011;56184;51.986;5.760;2022-09-12T05:28:32;12.93;;;8.50;;
69081;SDS011;56184;51.986;5.760;2022-09-12T05:31:18;18.95;;;9.30;;
69081;SDS011;56184;51.986;5.760;2022-09-12T05:33:46;14.75;;;9.15;;
69081;SDS011;56184;51.986;5.760;2022-09-12T05:36:14;14.75;;;10.05;;
69081;SDS011;56184;51.986;5.760;2022-09-12T05:38:41;18.25;;;10.52;;
69081;SDS011;56184;51.986;5.760;2022-09-12T05:41:08;16.85;;;10.40;;
69081;SDS011;56184;51.986;5.760;2022-09-12T05:43:37;15.68;;;9.95;;
69081;SDS011;56184;51.986;5.760;2022-09-12T05:46:09;17.63;;;10.40;;
69081;SDS011;56184;51.986;5.760;2022-09-12T05:48:39;22.42;;;12.50;;
69081;SDS011;56184;51.986;5.760;2022-09-12T05:51:07;19.48;;;11.43;;
69081;SDS011;56184;51.986;5.760;2022-09-12T05:53:35;23.00;;;13.13;;
69081;SDS011;56184;51.986;5.760;2022-09-12T05:56:05;25.65;;;13.10;;
69081;SDS011;56184;51.986;5.760;2022-09-12T05:58:36;20.73;;;12.25;;
69081;SDS011;56184;51.986;5.760;2022-09-12T06:01:03;23.63;;;12.32;;
69081;SDS011;56184;51.986;5.760;2022-09-12T06:03:31;20.13;;;11.88;;
69081;SDS011;56184;51.986;5.760;2022-09-12T06:06:00;18.55;;;11.40;;
69081;SDS011;56184;51.986;5.760;2022-09-12T06:08:27;24.63;;;12.27;;
69081;SDS011;56184;51.986;5.760;2022-09-12T06:10:57;20.92;;;12.90;;
69081;SDS011;56184;51.986;5.760;2022-09-12T06:13:24;24.98;;;13.02;;
69081;SDS011;56184;51.986;5.760;2022-09-12T06:15:49;19.20;;;12.52;;
69081;SDS011;56184;51.986;5.760;2022-09-12T06:18:15;19.98;;;13.25;;
69081;SDS011;56184;51.986;5.760;2022-09-12T06:20:42;27.05;;;14.77;;
69081;SDS011;56184;51.986;5.760;2022-09-12T06:23:07;23.35;;;14.00;;
69081;SDS011;56184;51.986;5.760;2022-09-12T06:25:33;25.45;;;14.07;;
69081;SDS011;56184;51.986;5.760;2022-09-12T06:27:58;28.55;;;15.07;;
69081;SDS011;56184;51.986;5.760;2022-09-12T06:30:25;27.27;;;15.57;;
69081;SDS011;56184;51.986;5.760;2022-09-12T06:32:51;37.83;;;18.67;;
69081;SDS011;56184;51.986;5.760;2022-09-12T06:35:17;30.92;;;15.32;;
69081;SDS011;56184;51.986;5.760;2022-09-12T06:37:43;53.50;;;22.83;;
69081;SDS011;56184;51.986;5.760;2022-09-12T06:40:09;51.65;;;21.20;;
69081;SDS011;56184;51.986;5.760;2022-09-12T06:42:36;39.67;;;19.00;;
69081;SDS011;56184;51.986;5.760;2022-09-12T06:45:01;44.63;;;19.63;;
69081;SDS011;56184;51.986;5.760;2022-09-12T06:47:27;48.65;;;20.63;;
69081;SDS011;56184;51.986;5.760;2022-09-12T06:49:53;51.17;;;21.58;;
69081;SDS011;56184;51.986;5.760;2022-09-12T06:52:18;59.67;;;22.20;;
69081;SDS011;56184;51.986;5.760;2022-09-12T06:54:44;49.10;;;22.80;;
69081;SDS011;56184;51.986;5.760;2022-09-12T06:57:10;58.85;;;23.40;;
69081;SDS011;56184;51.986;5.760;2022-09-12T06:59:36;55.15;;;21.98;;
69081;SDS011;56184;51.986;5.760;2022-09-12T07:02:01;42.95;;;20.60;;
69081;SDS011;56184;51.986;5.760;2022-09-12T07:04:27;57.60;;;26.10;;
69081;SDS011;56184;51.986;5.760;2022-09-12T07:06:53;54.90;;;23.52;;
69081;SDS011;56184;51.986;5.760;2022-09-12T07:09:19;62.28;;;26.75;;
69081;SDS011;56184;51.986;5.760;2022-09-12T07:11:45;61.40;;;26.90;;
69081;SDS011;56184;51.986;5.760;2022-09-12T07:14:11;61.45;;;26.23;;
69081;SDS011;56184;51.986;5.760;2022-09-12T07:16:38;66.00;;;28.10;;
69081;SDS011;56184;51.986;5.760;2022-09-12T07:19:04;56.63;;;25.23;;
69081;SDS011;56184;51.986;5.760;2022-09-12T07:21:31;72.45;;;30.02;;
69081;SDS011;56184;51.986;5.760;2022-09-12T07:23:57;74.95;;;30.77;;
69081;SDS011;56184;51.986;5.760;2022-09-12T07:26:24;70.15;;;30.90;;
69081;SDS011;56184;51.986;5.760;2022-09-12T07:28:51;79.47;;;31.00;;
69081;SDS011;56184;51.986;5.760;2022-09-12T07:31:18;74.80;;;32.55;;
69081;SDS011;56184;51.986;5.760;2022-09-12T07:33:46;73.65;;;32.20;;
69081;SDS011;56184;51.986;5.760;2022-09-12T07:36:14;72.35;;;31.35;;
69081;SDS011;56184;51.986;5.760;2022-09-12T07:38:42;69.70;;;31.98;;
69081;SDS011;56184;51.986;5.760;2022-09-12T07:41:12;70.22;;;31.73;;
69081;SDS011;56184;51.986;5.760;2022-09-12T07:43:40;67.40;;;31.02;;
69081;SDS011;56184;51.986;5.760;2022-09-12T07:46:06;69.75;;;31.80;;
69081;SDS011;56184;51.986;5.760;2022-09-12T07:48:32;62.83;;;29.40;;
69081;SDS011;56184;51.986;5.760;2022-09-12T07:50:58;65.07;;;31.17;;
69081;SDS011;56184;51.986;5.760;2022-09-12T07:53:26;64.75;;;30.52;;
69081;SDS011;56184;51.986;5.760;2022-09-12T07:55:56;71.63;;;30.75;;
69081;SDS011;56184;51.986;5.760;2022-09-12T07:58:22;68.05;;;31.67;;
69081;SDS011;56184;51.986;5.760;2022-09-12T08:00:48;64.07;;;29.73;;
69081;SDS011;56184;51.986;5.760;2022-09-12T08:03:14;61.25;;;27.65;;
69081;SDS011;56184;51.986;5.760;2022-09-12T08:05:39;54.67;;;27.70;;
69081;SDS011;56184;51.986;5.760;2022-09-12T08:08:05;57.70;;;29.42;;
69081;SDS011;56184;51.986;5.760;2022-09-12T08:10:31;63.78;;;28.60;;
69081;SDS011;56184;51.986;5.760;2022-09-12T08:12:56;57.38;;;29.38;;
69081;SDS011;56184;51.986;5.760;2022-09-12T08:15:23;66.90;;;30.73;;
69081;SDS011;56184;51.986;5.760;2022-09-12T08:17:50;55.70;;;28.63;;
69081;SDS011;56184;51.986;5.760;2022-09-12T08:20:15;59.78;;;29.08;;
69081;SDS011;56184;51.986;5.760;2022-09-12T08:22:42;57.38;;;27.17;;
69081;SDS011;56184;51.986;5.760;2022-09-12T08:25:08;52.97;;;26.83;;
69081;SDS011;56184;51.986;5.760;2022-09-12T08:27:34;55.55;;;27.08;;
69081;SDS011;56184;51.986;5.760;2022-09-12T08:30:00;49.03;;;26.98;;
69081;SDS011;56184;51.986;5.760;2022-09-12T08:32:25;49.90;;;26.17;;
69081;SDS011;56184;51.986;5.760;2022-09-12T08:34:51;46.40;;;25.55;;
69081;SDS011;56184;51.986;5.760;2022-09-12T08:37:16;45.70;;;25.65;;
69081;SDS011;56184;51.986;5.760;2022-09-12T08:39:42;42.83;;;23.85;;
69081;SDS011;56184;51.986;5.760;2022-09-12T08:42:08;43.28;;;25.65;;
69081;SDS011;56184;51.986;5.760;2022-09-12T08:45:14;46.45;;;23.60;;
69081;SDS011;56184;51.986;5.760;2022-09-12T08:47:47;43.28;;;22.83;;
69081;SDS011;56184;51.986;5.760;2022-09-12T08:50:17;44.28;;;23.77;;
69081;SDS011;56184;51.986;5.760;2022-09-12T08:52:48;41.33;;;22.88;;
69081;SDS011;56184;51.986;5.760;2022-09-12T08:55:28;41.83;;;23.13;;
69081;SDS011;56184;51.986;5.760;2022-09-12T08:58:12;40.88;;;22.58;;
69081;SDS011;56184;51.986;5.760;2022-09-12T09:03:52;35.90;;;22.08;;
69081;SDS011;56184;51.986;5.760;2022-09-12T09:09:13;37.80;;;22.33;;
69081;SDS011;56184;51.986;5.760;2022-09-12T09:14:53;32.03;;;19.63;;
69081;SDS011;56184;51.986;5.760;2022-09-12T09:25:16;29.07;;;17.53;;
69081;SDS011;56184;51.986;5.760;2022-09-12T09:27:47;29.95;;;17.48;;
69081;SDS011;56184;51.986;5.760;2022-09-12T09:30:22;28.17;;;16.52;;
69081;SDS011;56184;51.986;5.760;2022-09-12T09:32:49;26.60;;;17.30;;
69081;SDS011;56184;51.986;5.760;2022-09-12T09:37:55;28.05;;;16.90;;
69081;SDS011;56184;51.986;5.760;2022-09-12T09:40:33;25.17;;;15.60;;
69081;SDS011;56184;51.986;5.760;2022-09-12T09:45:46;27.88;;;15.95;;
69081;SDS011;56184;51.986;5.760;2022-09-12T09:48:15;27.02;;;15.95;;
69081;SDS011;56184;51.986;5.760;2022-09-12T09:50:43;24.45;;;15.10;;
69081;SDS011;56184;51.986;5.760;2022-09-12T09:53:13;27.10;;;14.82;;
69081;SDS011;56184;51.986;5.760;2022-09-12T09:55:50;22.65;;;15.52;;
69081;SDS011;56184;51.986;5.760;2022-09-12T09:58:29;25.10;;;15.43;;
69081;SDS011;56184;51.986;5.760;2022-09-12T10:00:57;24.10;;;15.48;;
69081;SDS011;56184;51.986;5.760;2022-09-12T10:03:32;21.80;;;14.48;;
69081;SDS011;56184;51.986;5.760;2022-09-12T10:08:44;16.67;;;11.65;;
69081;SDS011;56184;51.986;5.760;2022-09-12T10:13:40;20.17;;;13.07;;
69081;SDS011;56184;51.986;5.760;2022-09-12T10:18:47;16.15;;;11.90;;
69081;SDS011;56184;51.986;5.760;2022-09-12T10:21:28;19.70;;;12.27;;
69081;SDS011;56184;51.986;5.760;2022-09-12T10:23:58;20.63;;;12.32;;
69081;SDS011;56184;51.986;5.760;2022-09-12T10:26:44;18.70;;;12.20;;
69081;SDS011;56184;51.986;5.760;2022-09-12T10:29:16;17.40;;;11.13;;
69081;SDS011;56184;51.986;5.760;2022-09-12T10:31:50;15.45;;;10.35;;
69081;SDS011;56184;51.986;5.760;2022-09-12T10:37:04;16.90;;;10.82;;
69081;SDS011;56184;51.986;5.760;2022-09-12T10:39:53;17.00;;;10.57;;
69081;SDS011;56184;51.986;5.760;2022-09-12T10:45:35;15.77;;;10.50;;
69081;SDS011;56184;51.986;5.760;2022-09-12T10:48:03;13.25;;;8.82;;
69081;SDS011;56184;51.986;5.760;2022-09-12T10:50:49;14.30;;;10.93;;
69081;SDS011;56184;51.986;5.760;2022-09-12T10:53:18;13.30;;;8.63;;
69081;SDS011;56184;51.986;5.760;2022-09-12T10:55:50;17.35;;;7.38;;
69081;SDS011;56184;51.986;5.760;2022-09-12T11:04:14;11.07;;;7.45;;
69081;SDS011;56184;51.986;5.760;2022-09-12T11:09:45;10.15;;;7.18;;
69081;SDS011;56184;51.986;5.760;2022-09-12T11:18:12;9.77;;;6.57;;
69081;SDS011;56184;51.986;5.760;2022-09-12T11:24:10;10.13;;;6.68;;
69081;SDS011;56184;51.986;5.760;2022-09-12T11:26:59;8.05;;;6.13;;
69081;SDS011;56184;51.986;5.760;2022-09-12T11:29:39;6.35;;;4.32;;
69081;SDS011;56184;51.986;5.760;2022-09-12T11:36:01;6.10;;;4.00;;
69081;SDS011;56184;51.986;5.760;2022-09-12T11:43:22;8.85;;;5.47;;
69081;SDS011;56184;51.986;5.760;2022-09-12T11:45:55;9.10;;;5.30;;
69081;SDS011;56184;51.986;5.760;2022-09-12T11:51:12;6.82;;;5.18;;
69081;SDS011;56184;51.986;5.760;2022-09-12T11:53:45;7.10;;;5.07;;
69081;SDS011;56184;51.986;5.760;2022-09-12T11:56:20;10.63;;;4.07;;
69081;SDS011;56184;51.986;5.760;2022-09-12T11:59:32;4.60;;;3.00;;
69081;SDS011;56184;51.986;5.760;2022-09-12T12:04:16;3.08;;;2.75;;
69081;SDS011;56184;51.986;5.760;2022-09-12T12:06:49;8.30;;;2.58;;
69081;SDS011;56184;51.986;5.760;2022-09-12T12:09:21;3.42;;;3.13;;
69081;SDS011;56184;51.986;5.760;2022-09-12T12:11:52;5.10;;;3.38;;
69081;SDS011;56184;51.986;5.760;2022-09-12T12:14:25;5.25;;;2.63;;
69081;SDS011;56184;51.986;5.760;2022-09-12T12:17:00;5.22;;;3.08;;
69081;SDS011;56184;51.986;5.760;2022-09-12T12:19:29;6.97;;;3.15;;
69081;SDS011;56184;51.986;5.760;2022-09-12T12:22:07;4.35;;;2.33;;
69081;SDS011;56184;51.986;5.760;2022-09-12T12:26:59;5.20;;;2.67;;
69081;SDS011;56184;51.986;5.760;2022-09-12T12:34:34;6.25;;;2.80;;
69081;SDS011;56184;51.986;5.760;2022-09-12T12:42:55;3.65;;;2.58;;
69081;SDS011;56184;51.986;5.760;2022-09-12T12:47:43;5.38;;;2.55;;
69081;SDS011;56184;51.986;5.760;2022-09-12T12:52:47;6.13;;;2.30;;
69081;SDS011;56184;51.986;5.760;2022-09-12T12:55:21;7.55;;;2.92;;
69081;SDS011;56184;51.986;5.760;2022-09-12T12:57:55;6.95;;;2.28;;
69081;SDS011;56184;51.986;5.760;2022-09-12T13:08:37;2.67;;;2.35;;
69081;SDS011;56184;51.986;5.760;2022-09-12T13:11:09;4.35;;;3.00;;
69081;SDS011;56184;51.986;5.760;2022-09-12T13:16:08;2.70;;;2.30;;
69081;SDS011;56184;51.986;5.760;2022-09-12T13:18:42;4.85;;;3.17;;
69081;SDS011;56184;51.986;5.760;2022-09-12T13:21:13;6.97;;;2.80;;
69081;SDS011;56184;51.986;5.760;2022-09-12T13:23:40;6.25;;;2.95;;
69081;SDS011;56184;51.986;5.760;2022-09-12T13:26:10;5.07;;;1.75;;
69081;SDS011;56184;51.986;5.760;2022-09-12T13:28:37;5.57;;;2.63;;
69081;SDS011;56184;51.986;5.760;2022-09-12T13:33:46;6.40;;;2.85;;
69081;SDS011;56184;51.986;5.760;2022-09-12T13:44:16;4.63;;;2.03;;
69081;SDS011;56184;51.986;5.760;2022-09-12T13:46:45;5.25;;;2.97;;
69081;SDS011;56184;51.986;5.760;2022-09-12T13:49:19;4.40;;;3.08;;
69081;SDS011;56184;51.986;5.760;2022-09-12T13:51:58;8.10;;;2.47;;
69081;SDS011;56184;51.986;5.760;2022-09-12T13:54:40;12.65;;;2.00;;
69081;SDS011;56184;51.986;5.760;2022-09-12T13:57:26;12.02;;;1.95;;
69081;SDS011;56184;51.986;5.760;2022-09-12T14:00:06;4.30;;;1.40;;
69081;SDS011;56184;51.986;5.760;2022-09-12T14:02:43;3.65;;;1.70;;
69081;SDS011;56184;51.986;5.760;2022-09-12T14:05:11;4.13;;;1.83;;
69081;SDS011;56184;51.986;5.760;2022-09-12T14:07:59;2.38;;;2.17;;
69081;SDS011;56184;51.986;5.760;2022-09-12T14:10:30;4.55;;;2.22;;
69081;SDS011;56184;51.986;5.760;2022-09-12T14:13:01;3.45;;;2.00;;
69081;SDS011;56184;51.986;5.760;2022-09-12T14:15:35;3.53;;;1.90;;
69081;SDS011;56184;51.986;5.760;2022-09-12T14:18:02;6.53;;;2.00;;
69081;SDS011;56184;51.986;5.760;2022-09-12T14:20:34;4.10;;;1.70;;
69081;SDS011;56184;51.986;5.760;2022-09-12T14:23:04;4.47;;;1.50;;
69081;SDS011;56184;51.986;5.760;2022-09-12T14:25:45;5.30;;;1.73;;
69081;SDS011;56184;51.986;5.760;2022-09-12T14:28:12;3.72;;;1.98;;
69081;SDS011;56184;51.986;5.760;2022-09-12T14:30:55;5.07;;;1.95;;
69081;SDS011;56184;51.986;5.760;2022-09-12T14:33:26;2.65;;;1.40;;
69081;SDS011;56184;51.986;5.760;2022-09-12T14:36:05;3.15;;;1.58;;
69081;SDS011;56184;51.986;5.760;2022-09-12T14:38:38;3.80;;;1.48;;
69081;SDS011;56184;51.986;5.760;2022-09-12T14:41:07;5.18;;;1.85;;
69081;SDS011;56184;51.986;5.760;2022-09-12T14:43:38;3.10;;;1.77;;
69081;SDS011;56184;51.986;5.760;2022-09-12T14:46:15;5.13;;;1.73;;
69081;SDS011;56184;51.986;5.760;2022-09-12T14:48:48;3.58;;;1.58;;
69081;SDS011;56184;51.986;5.760;2022-09-12T14:51:24;3.33;;;1.52;;
69081;SDS011;56184;51.986;5.760;2022-09-12T14:53:58;2.08;;;1.10;;
69081;SDS011;56184;51.986;5.760;2022-09-12T14:56:40;4.50;;;1.70;;
69081;SDS011;56184;51.986;5.760;2022-09-12T15:04:45;2.72;;;2.00;;
69081;SDS011;56184;51.986;5.760;2022-09-12T15:09:58;3.90;;;1.52;;
69081;SDS011;56184;51.986;5.760;2022-09-12T15:12:25;7.45;;;2.10;;
69081;SDS011;56184;51.986;5.760;2022-09-12T15:14:51;2.50;;;1.55;;
69081;SDS011;56184;51.986;5.760;2022-09-12T15:17:17;6.07;;;1.92;;
69081;SDS011;56184;51.986;5.760;2022-09-12T15:19:42;1.60;;;1.27;;
69081;SDS011;56184;51.986;5.760;2022-09-12T15:22:10;4.20;;;1.65;;
69081;SDS011;56184;51.986;5.760;2022-09-12T15:24:37;5.40;;;1.98;;
69081;SDS011;56184;51.986;5.760;2022-09-12T15:27:10;5.38;;;1.50;;
69081;SDS011;56184;51.986;5.760;2022-09-12T15:29:36;4.90;;;1.60;;
69081;SDS011;56184;51.986;5.760;2022-09-12T15:32:05;1.85;;;1.50;;
69081;SDS011;56184;51.986;5.760;2022-09-12T15:34:38;5.03;;;1.60;;
69081;SDS011;56184;51.986;5.760;2022-09-12T15:37:08;3.22;;;1.60;;
69081;SDS011;56184;51.986;5.760;2022-09-12T15:39:38;3.70;;;1.58;;
69081;SDS011;56184;51.986;5.760;2022-09-12T15:42:05;4.47;;;1.65;;
69081;SDS011;56184;51.986;5.760;2022-09-12T15:44:30;5.30;;;2.08;;
69081;SDS011;56184;51.986;5.760;2022-09-12T15:46:56;3.85;;;1.70;;
69081;SDS011;56184;51.986;5.760;2022-09-12T15:49:21;3.67;;;2.00;;
69081;SDS011;56184;51.986;5.760;2022-09-12T15:51:47;6.75;;;1.85;;
69081;SDS011;56184;51.986;5.760;2022-09-12T15:54:12;2.83;;;2.03;;
69081;SDS011;56184;51.986;5.760;2022-09-12T15:56:41;2.53;;;1.40;;
69081;SDS011;56184;51.986;5.760;2022-09-12T15:59:07;2.45;;;1.58;;
69081;SDS011;56184;51.986;5.760;2022-09-12T16:01:33;9.13;;;1.60;;
69081;SDS011;56184;51.986;5.760;2022-09-12T16:03:59;3.05;;;1.65;;
69081;SDS011;56184;51.986;5.760;2022-09-12T16:06:27;3.55;;;2.15;;
69081;SDS011;56184;51.986;5.760;2022-09-12T16:08:54;2.17;;;2.00;;
69081;SDS011;56184;51.986;5.760;2022-09-12T16:11:22;6.43;;;1.63;;
69081;SDS011;56184;51.986;5.760;2022-09-12T16:13:52;4.68;;;2.70;;
69081;SDS011;56184;51.986;5.760;2022-09-12T16:16:20;4.80;;;2.72;;
69081;SDS011;56184;51.986;5.760;2022-09-12T16:18:46;10.38;;;2.38;;
69081;SDS011;56184;51.986;5.760;2022-09-12T16:21:12;5.97;;;2.45;;
69081;SDS011;56184;51.986;5.760;2022-09-12T16:23:37;3.90;;;2.10;;
69081;SDS011;56184;51.986;5.760;2022-09-12T16:26:05;5.95;;;2.63;;
69081;SDS011;56184;51.986;5.760;2022-09-12T16:28:31;4.70;;;1.90;;
69081;SDS011;56184;51.986;5.760;2022-09-12T16:31:01;7.93;;;2.00;;
69081;SDS011;56184;51.986;5.760;2022-09-12T16:33:28;4.20;;;2.03;;
69081;SDS011;56184;51.986;5.760;2022-09-12T16:36:05;5.70;;;2.33;;
69081;SDS011;56184;51.986;5.760;2022-09-12T16:38:33;6.50;;;2.30;;
69081;SDS011;56184;51.986;5.760;2022-09-12T16:41:05;7.50;;;2.75;;
69081;SDS011;56184;51.986;5.760;2022-09-12T16:43:31;4.82;;;2.60;;
69081;SDS011;56184;51.986;5.760;2022-09-12T16:45:59;3.40;;;2.40;;
69081;SDS011;56184;51.986;5.760;2022-09-12T16:48:29;6.82;;;2.65;;
69081;SDS011;56184;51.986;5.760;2022-09-12T16:50:58;6.38;;;2.40;;
69081;SDS011;56184;51.986;5.760;2022-09-12T16:53:34;5.60;;;2.30;;
69081;SDS011;56184;51.986;5.760;2022-09-12T16:56:01;3.63;;;2.25;;
69081;SDS011;56184;51.986;5.760;2022-09-12T16:58:27;4.10;;;2.45;;
69081;SDS011;56184;51.986;5.760;2022-09-12T17:01:03;7.53;;;2.63;;
69081;SDS011;56184;51.986;5.760;2022-09-12T17:03:28;4.57;;;2.33;;
69081;SDS011;56184;51.986;5.760;2022-09-12T17:05:57;5.05;;;2.95;;
69081;SDS011;56184;51.986;5.760;2022-09-12T17:08:27;5.38;;;2.55;;
69081;SDS011;56184;51.986;5.760;2022-09-12T17:10:57;3.88;;;2.40;;
69081;SDS011;56184;51.986;5.760;2022-09-12T17:13:25;4.78;;;2.45;;
69081;SDS011;56184;51.986;5.760;2022-09-12T17:15:50;3.67;;;2.40;;
69081;SDS011;56184;51.986;5.760;2022-09-12T17:18:17;4.40;;;2.10;;
69081;SDS011;56184;51.986;5.760;2022-09-12T17:20:43;4.32;;;2.15;;
69081;SDS011;56184;51.986;5.760;2022-09-12T17:23:08;3.22;;;2.08;;
69081;SDS011;56184;51.986;5.760;2022-09-12T17:25:34;6.20;;;2.10;;
69081;SDS011;56184;51.986;5.760;2022-09-12T17:28:00;6.40;;;2.28;;
69081;SDS011;56184;51.986;5.760;2022-09-12T17:30:33;4.20;;;2.00;;
69081;SDS011;56184;51.986;5.760;2022-09-12T17:32:59;2.35;;;2.00;;